createdAt,value
2023-08-20T00:00:27.065Z,101965.69
2023-08-20T00:03:04.341Z,101962.97
2023-08-20T00:05:35.331Z,101973.59
2023-08-20T00:08:08.330Z,101974.44
2023-08-20T00:10:38.280Z,101973.50
2023-08-20T00:13:08.187Z,101977.91
2023-08-20T00:15:38.638Z,101978.75
2023-08-20T00:18:09.497Z,101984.91
2023-08-20T00:20:41.660Z,101992.88
2023-08-20T00:23:14.932Z,101997.28
2023-08-20T00:25:46.092Z,101997.25
2023-08-20T00:28:16.672Z,101987.44
2023-08-20T00:30:46.527Z,101991.84
2023-08-20T00:33:16.495Z,101989.19
2023-08-20T00:35:46.347Z,101988.25
2023-08-20T00:38:18.793Z,101986.41
2023-08-20T00:40:48.646Z,101990.84
2023-08-20T00:43:18.580Z,101989.91
2023-08-20T00:45:48.528Z,101993.41
2023-08-20T00:48:19.375Z,101996.03
2023-08-20T00:50:49.873Z,102004.91
2023-08-20T00:53:23.987Z,102004.03
2023-08-20T00:55:53.863Z,101994.25
2023-08-20T00:58:23.787Z,102008.47
2023-08-20T01:00:53.659Z,102005.75
2023-08-20T01:03:23.572Z,102001.25
2023-08-20T01:06:03.593Z,101995.00
2023-08-20T01:08:41.941Z,102002.97
2023-08-20T01:11:21.052Z,101998.50
2023-08-20T01:13:50.892Z,102003.78
2023-08-20T01:16:20.761Z,102008.13
2023-08-20T01:18:51.573Z,102009.00
2023-08-20T01:21:30.951Z,102008.06
2023-08-20T01:24:36.471Z,101999.97
2023-08-20T01:27:21.441Z,101999.97
2023-08-20T01:29:59.801Z,102009.69
2023-08-20T01:32:29.802Z,102013.22
2023-08-20T01:35:00.317Z,102014.06
2023-08-20T01:37:30.306Z,102019.28
2023-08-20T01:40:00.262Z,102029.94
2023-08-20T01:42:30.155Z,102030.81
2023-08-20T01:45:02.605Z,102033.47
2023-08-20T01:47:33.084Z,102032.53
2023-08-20T01:50:06.788Z,102040.53
2023-08-20T01:52:37.381Z,102046.72
2023-08-20T01:55:08.580Z,102055.53
2023-08-20T01:57:38.773Z,102048.38
2023-08-20T02:00:12.664Z,102050.13
2023-08-20T02:02:42.594Z,102057.16
2023-08-20T02:05:12.539Z,102056.22
2023-08-20T02:07:42.836Z,102058.81
2023-08-20T02:10:13.083Z,102061.41
2023-08-20T02:12:43.513Z,102057.84
2023-08-20T02:15:16.200Z,102056.03
2023-08-20T02:17:46.120Z,102056.88
2023-08-20T02:20:16.102Z,102052.44
2023-08-20T02:22:46.268Z,102037.34
2023-08-20T02:25:16.328Z,102044.41
2023-08-20T02:27:46.274Z,102034.56
2023-08-20T02:30:20.546Z,102023.84
2023-08-20T02:32:50.447Z,102022.94
2023-08-20T02:35:20.779Z,102012.19
2023-08-20T02:37:50.650Z,102005.88
2023-08-20T02:40:20.856Z,102010.25
2023-08-20T02:42:50.711Z,102005.81
2023-08-20T02:45:23.134Z,102011.13
2023-08-20T02:47:53.085Z,102009.38
2023-08-20T02:50:22.933Z,102027.09
2023-08-20T02:52:52.772Z,102035.97
2023-08-20T02:55:22.603Z,102033.28
2023-08-20T02:57:52.475Z,102036.81
2023-08-20T03:00:24.964Z,102024.38
2023-08-20T03:02:55.032Z,102019.00
2023-08-20T03:05:25.152Z,102016.34
2023-08-20T03:07:55.021Z,102003.03
2023-08-20T03:10:24.849Z,101998.59
2023-08-20T03:12:54.687Z,101997.72
2023-08-20T03:15:27.144Z,101999.47
2023-08-20T03:17:57.147Z,101999.47
2023-08-20T03:20:27.728Z,101999.47
2023-08-20T03:22:58.589Z,102002.97
2023-08-20T03:25:29.014Z,102002.03
2023-08-20T03:28:01.799Z,102001.16
2023-08-20T03:30:35.090Z,102001.16
2023-08-20T03:33:05.018Z,102000.19
2023-08-20T03:35:34.906Z,102005.50
2023-08-20T03:38:04.729Z,102008.16
2023-08-20T03:40:34.661Z,102014.34
2023-08-20T03:43:04.574Z,102011.66
2023-08-20T03:45:37.053Z,102011.59
2023-08-20T03:48:07.761Z,102010.66
2023-08-20T03:50:37.608Z,102010.66
2023-08-20T03:53:07.870Z,102016.91
2023-08-20T03:55:38.908Z,102023.97
2023-08-20T03:58:08.776Z,102024.84
2023-08-20T04:00:41.333Z,102026.56
2023-08-20T04:03:11.252Z,102035.41
2023-08-20T04:05:42.443Z,102040.72
2023-08-20T04:08:12.287Z,102039.84
2023-08-20T04:10:48.023Z,102039.84
2023-08-20T04:13:17.893Z,102039.00
2023-08-20T04:15:50.398Z,102046.06
2023-08-20T04:18:21.023Z,102050.56
2023-08-20T04:20:50.880Z,102053.22
2023-08-20T04:23:20.749Z,102058.59
2023-08-20T04:25:50.799Z,102062.13
2023-08-20T04:28:21.396Z,102057.72
2023-08-20T04:30:56.476Z,102056.81
2023-08-20T04:33:26.330Z,102062.13
2023-08-20T04:35:56.506Z,102062.19
2023-08-20T04:38:26.365Z,102068.41
2023-08-20T04:40:56.221Z,102058.63
2023-08-20T04:43:26.146Z,102059.56
2023-08-20T04:45:58.600Z,102059.56
2023-08-20T04:48:28.507Z,102059.59
2023-08-20T04:50:58.401Z,102070.44
2023-08-20T04:53:29.034Z,102075.03
2023-08-20T04:55:58.873Z,102070.84
2023-08-20T04:58:28.853Z,102078.28
2023-08-20T05:01:01.350Z,102076.84
2023-08-20T05:03:31.602Z,102084.34
2023-08-20T05:06:01.566Z,102087.38
2023-08-20T05:08:31.511Z,102094.03
2023-08-20T05:11:02.543Z,102092.63
2023-08-20T05:13:33.135Z,102092.09
2023-08-20T05:16:05.602Z,102087.97
2023-08-20T05:18:35.425Z,102089.09
2023-08-20T05:21:05.315Z,102094.69
2023-08-20T05:23:35.162Z,102089.66
2023-08-20T05:26:05.024Z,102089.94
2023-08-20T05:28:36.404Z,102085.59
2023-08-20T05:31:08.944Z,102090.06
2023-08-20T05:33:38.971Z,102090.94
2023-08-20T05:36:09.344Z,102086.47
2023-08-20T05:38:39.230Z,102081.13
2023-08-20T05:41:09.645Z,102088.22
2023-08-20T05:43:40.980Z,102090.91
2023-08-20T05:46:13.433Z,102089.03
2023-08-20T05:48:43.349Z,102093.44
2023-08-20T05:51:13.196Z,102081.00
2023-08-20T05:53:43.184Z,102086.28
2023-08-20T05:56:13.164Z,102080.97
2023-08-20T05:58:43.052Z,102070.31
2023-08-20T06:01:15.560Z,102072.19
2023-08-20T06:03:46.979Z,102077.66
2023-08-20T06:06:17.035Z,102068.91
2023-08-20T06:08:59.026Z,102074.47
2023-08-20T06:11:36.736Z,102073.78
2023-08-20T06:14:07.127Z,102075.78
2023-08-20T06:16:39.578Z,102067.88
2023-08-20T06:19:09.853Z,102073.41
2023-08-20T06:21:39.737Z,102079.78
2023-08-20T06:24:10.333Z,102074.59
2023-08-20T06:26:40.263Z,102072.03
2023-08-20T06:29:10.997Z,102077.53
2023-08-20T06:31:44.033Z,102064.31
2023-08-20T06:34:13.918Z,102080.50
2023-08-20T06:36:43.742Z,102077.97
2023-08-20T06:39:13.633Z,102077.13
2023-08-20T06:41:43.452Z,102080.78
2023-08-20T06:44:13.341Z,102074.56
2023-08-20T06:46:45.810Z,102085.34
2023-08-20T06:49:15.736Z,102086.34
2023-08-20T06:51:45.536Z,102084.66
2023-08-20T06:54:16.025Z,102091.88
2023-08-20T06:56:46.520Z,102090.16
2023-08-20T06:59:17.910Z,102096.44
2023-08-20T07:01:50.357Z,102103.66
2023-08-20T07:04:20.238Z,102098.38
2023-08-20T07:06:50.126Z,102096.63
2023-08-20T07:09:20.246Z,102097.53
2023-08-20T07:11:50.100Z,102098.44
2023-08-20T07:14:20.005Z,102092.16
2023-08-20T07:16:52.523Z,102095.72
2023-08-20T07:19:22.400Z,102096.66
2023-08-20T07:21:52.295Z,102100.19
2023-08-20T07:24:26.709Z,102101.94
2023-08-20T07:27:01.791Z,102103.72
2023-08-20T07:29:32.918Z,102100.13
2023-08-20T07:32:05.368Z,102102.81
2023-08-20T07:34:35.535Z,102102.75
2023-08-20T07:37:07.148Z,102106.34
2023-08-20T07:39:37.038Z,102108.16
2023-08-20T07:42:07.640Z,102109.03
2023-08-20T07:44:37.494Z,102102.75
2023-08-20T07:47:10.029Z,102103.59
2023-08-20T07:49:39.890Z,102100.84
2023-08-20T07:52:09.900Z,102103.47
2023-08-20T07:54:39.749Z,102106.09
2023-08-20T07:57:11.898Z,102096.16
2023-08-20T07:59:41.929Z,102100.50
2023-08-20T08:02:14.427Z,102100.41
2023-08-20T08:04:46.254Z,102101.19
2023-08-20T08:07:16.470Z,102101.06
2023-08-20T08:09:46.899Z,102105.41
2023-08-20T08:12:16.712Z,102103.50
2023-08-20T08:14:46.556Z,102096.22
2023-08-20T08:17:19.098Z,102100.63
2023-08-20T08:19:49.782Z,102099.66
2023-08-20T08:22:22.864Z,102098.69
2023-08-20T08:24:52.698Z,102115.63
2023-08-20T08:27:23.110Z,102111.06
2023-08-20T08:29:53.086Z,102117.31
2023-08-20T08:32:25.527Z,102120.88
2023-08-20T08:34:55.360Z,102121.72
2023-08-20T08:37:25.204Z,102118.97
2023-08-20T08:39:55.077Z,102127.00
2023-08-20T08:42:27.869Z,102133.19
2023-08-20T08:44:59.458Z,102134.97
2023-08-20T08:47:33.368Z,102133.25
2023-08-20T08:50:03.835Z,102139.59
2023-08-20T08:52:35.675Z,102138.69
2023-08-20T08:55:05.917Z,102143.22
2023-08-20T08:57:36.214Z,102145.91
2023-08-20T09:00:07.131Z,102143.22
2023-08-20T09:02:39.607Z,102147.78
2023-08-20T09:05:10.522Z,102145.03
2023-08-20T09:07:46.360Z,102157.69
2023-08-20T09:10:16.304Z,102154.19
2023-08-20T09:12:46.261Z,102148.88
2023-08-20T09:15:17.119Z,102152.59
2023-08-20T09:17:50.885Z,102161.72
2023-08-20T09:20:20.803Z,102161.78
2023-08-20T09:22:53.588Z,102158.22
2023-08-20T09:25:23.696Z,102160.94
2023-08-20T09:27:53.558Z,102167.25
2023-08-20T09:30:25.124Z,102161.00
2023-08-20T09:33:11.205Z,102169.06
2023-08-20T09:35:41.138Z,102168.06
2023-08-20T09:38:10.986Z,102163.50
2023-08-20T09:40:40.839Z,102156.34
2023-08-20T09:43:13.612Z,102157.25
2023-08-20T09:45:44.928Z,102153.69
2023-08-20T09:48:22.597Z,102151.94
2023-08-20T09:50:55.554Z,102154.69
2023-08-20T09:53:31.034Z,102150.22
2023-08-20T09:56:07.597Z,102155.53
2023-08-20T09:58:37.876Z,102160.88
2023-08-20T10:01:08.501Z,102162.56
2023-08-20T10:03:42.196Z,102154.41
2023-08-20T10:06:12.610Z,102161.50
2023-08-20T10:08:43.158Z,102167.75
2023-08-20T10:11:13.049Z,102167.66
2023-08-20T10:13:43.332Z,102164.91
2023-08-20T10:16:15.684Z,102163.97
2023-08-20T10:18:48.457Z,102169.22
2023-08-20T10:21:18.311Z,102174.56
2023-08-20T10:23:53.151Z,102169.22
2023-08-20T10:26:25.772Z,102160.34
2023-08-20T10:28:56.329Z,102164.91
2023-08-20T10:31:30.097Z,102165.78
2023-08-20T10:34:03.282Z,102163.97
2023-08-20T10:36:33.160Z,102161.22
2023-08-20T10:39:09.188Z,102161.16
2023-08-20T10:41:40.043Z,102168.34
2023-08-20T10:44:09.914Z,102166.56
2023-08-20T10:46:54.138Z,102159.41
2023-08-20T10:49:26.780Z,102155.88
2023-08-20T10:51:58.254Z,102155.03
2023-08-20T10:54:28.606Z,102152.34
2023-08-20T10:57:01.644Z,102157.69
2023-08-20T10:59:33.158Z,102148.69
2023-08-20T11:02:04.612Z,102159.41
2023-08-20T11:04:37.227Z,102153.09
2023-08-20T11:07:08.249Z,102156.72
2023-08-20T11:09:41.101Z,102157.69
2023-08-20T11:12:11.804Z,102158.75
2023-08-20T11:14:41.713Z,102154.38
2023-08-20T11:17:11.702Z,102162.56
2023-08-20T11:19:47.521Z,102163.63
2023-08-20T11:22:22.318Z,102160.09
2023-08-20T11:24:52.241Z,102157.47
2023-08-20T11:27:22.223Z,102160.13
2023-08-20T11:29:54.054Z,102159.19
2023-08-20T11:32:24.010Z,102156.47
2023-08-20T11:34:56.683Z,102167.19
2023-08-20T11:37:26.564Z,102163.56
2023-08-20T11:39:56.389Z,102160.88
2023-08-20T11:42:27.063Z,102165.38
2023-08-20T11:45:00.247Z,102162.69
2023-08-20T11:47:30.128Z,102169.84
2023-08-20T11:50:10.644Z,102165.34
2023-08-20T11:52:41.250Z,102154.53
2023-08-20T11:55:12.199Z,102167.97
2023-08-20T11:57:42.217Z,102163.38
2023-08-20T12:00:14.749Z,102158.84
2023-08-20T12:02:45.004Z,102156.13
2023-08-20T12:05:17.688Z,102147.06
2023-08-20T12:07:58.994Z,102154.09
2023-08-20T12:10:30.348Z,102161.19
2023-08-20T12:13:01.286Z,102158.41
2023-08-20T12:15:31.246Z,102165.47
2023-08-20T12:18:05.834Z,102157.28
2023-08-20T12:20:39.881Z,102167.13
2023-08-20T12:23:11.111Z,102163.44
2023-08-20T12:25:40.991Z,102168.81
2023-08-20T12:28:10.953Z,102161.63
2023-08-20T12:30:42.473Z,102154.38
2023-08-20T12:33:13.679Z,102156.13
2023-08-20T12:35:46.097Z,102151.63
2023-08-20T12:38:17.027Z,102148.81
2023-08-20T12:40:46.975Z,102142.53
2023-08-20T12:43:17.090Z,102162.25
2023-08-20T12:45:46.988Z,102153.16
2023-08-20T12:48:16.916Z,102159.50
2023-08-20T12:50:50.257Z,102153.22
2023-08-20T12:53:20.240Z,102156.94
2023-08-20T12:55:50.078Z,102161.53
2023-08-20T12:58:21.929Z,102151.75
2023-08-20T13:00:52.004Z,102159.03
2023-08-20T13:03:22.865Z,102153.75
2023-08-20T13:05:58.140Z,102161.03
2023-08-20T13:08:29.171Z,102155.75
2023-08-20T13:11:00.337Z,102158.47
2023-08-20T13:13:30.921Z,102172.84
2023-08-20T13:16:01.504Z,102167.44
2023-08-20T13:18:32.104Z,102162.97
2023-08-20T13:21:05.327Z,102172.84
2023-08-20T13:23:35.142Z,102170.97
2023-08-20T13:26:05.028Z,102175.50
2023-08-20T13:28:35.497Z,102175.50
2023-08-20T13:31:05.617Z,102173.63
2023-08-20T13:33:35.478Z,102174.56
2023-08-20T13:36:08.496Z,102170.16
2023-08-20T13:38:38.410Z,102177.38
2023-08-20T13:41:08.411Z,102176.44
2023-08-20T13:43:38.259Z,102175.44
2023-08-20T13:46:08.160Z,102178.03
2023-08-20T13:48:38.018Z,102177.06
2023-08-20T13:51:10.481Z,102184.31
2023-08-20T13:53:40.325Z,102174.47
2023-08-20T13:56:11.320Z,102182.66
2023-08-20T13:58:41.163Z,102178.34
2023-08-20T14:01:11.100Z,102181.09
2023-08-20T14:03:41.195Z,102182.09
2023-08-20T14:06:13.653Z,102184.81
2023-08-20T14:08:43.531Z,102181.19
2023-08-20T14:11:13.636Z,102187.53
2023-08-20T14:13:44.198Z,102189.38
2023-08-20T14:16:14.061Z,102170.53
2023-08-20T14:18:44.085Z,102172.34
2023-08-20T14:21:16.519Z,102179.56
2023-08-20T14:23:46.405Z,102179.59
2023-08-20T14:26:16.997Z,102176.00
2023-08-20T14:28:46.983Z,102176.06
2023-08-20T14:31:17.108Z,102175.16
2023-08-20T14:33:46.979Z,102173.41
2023-08-20T14:36:19.442Z,102176.13
2023-08-20T14:38:49.343Z,102170.75
2023-08-20T14:41:19.250Z,102176.13
2023-08-20T14:43:49.482Z,102172.56
2023-08-20T14:46:19.325Z,102177.94
2023-08-20T14:48:49.340Z,102172.59
2023-08-20T14:51:21.828Z,102184.34
2023-08-20T14:53:51.703Z,102168.22
2023-08-20T14:56:21.545Z,102170.94
2023-08-20T14:58:51.385Z,102172.78
2023-08-20T15:01:21.297Z,102162.03
2023-08-20T15:03:51.175Z,102172.84
2023-08-20T15:06:27.157Z,102171.09
2023-08-20T15:08:57.374Z,102180.97
2023-08-20T15:11:29.162Z,102179.19
2023-08-20T15:13:59.038Z,102171.13
2023-08-20T15:16:30.350Z,102167.53
2023-08-20T15:19:00.246Z,102173.84
2023-08-20T15:21:33.393Z,102172.13
2023-08-20T15:24:05.040Z,102171.22
2023-08-20T15:26:35.427Z,102175.69
2023-08-20T15:29:06.083Z,102178.34
2023-08-20T15:31:35.952Z,102176.50
2023-08-20T15:34:06.477Z,102181.88
2023-08-20T15:36:38.947Z,102180.97
2023-08-20T15:39:08.823Z,102180.06
2023-08-20T15:41:38.671Z,102179.16
2023-08-20T15:44:08.769Z,102170.19
2023-08-20T15:46:39.230Z,102176.47
2023-08-20T15:49:09.796Z,102167.50
2023-08-20T15:51:42.283Z,102175.59
2023-08-20T15:54:12.139Z,102168.38
2023-08-20T15:56:43.043Z,102162.06
2023-08-20T15:59:12.910Z,102165.69
2023-08-20T16:01:43.442Z,102165.72
2023-08-20T16:04:13.444Z,102157.63
2023-08-20T16:06:45.907Z,102154.06
2023-08-20T16:09:15.748Z,102164.84
2023-08-20T16:11:45.623Z,102163.94
2023-08-20T16:14:15.457Z,102162.19
2023-08-20T16:16:45.333Z,102165.81
2023-08-20T16:19:15.216Z,102164.06
2023-08-20T16:21:49.434Z,102162.28
2023-08-20T16:24:19.732Z,102157.84
2023-08-20T16:26:49.653Z,102157.84
2023-08-20T16:29:20.907Z,102154.28
2023-08-20T16:31:50.845Z,102147.13
2023-08-20T16:34:20.710Z,102150.72
2023-08-20T16:36:53.920Z,102140.84
2023-08-20T16:39:23.800Z,102149.84
2023-08-20T16:41:55.456Z,102145.34
2023-08-20T16:44:25.296Z,102148.94
2023-08-20T16:46:55.214Z,102146.25
2023-08-20T16:49:25.576Z,102144.47
2023-08-20T16:51:58.065Z,102152.59
2023-08-20T16:54:28.015Z,102156.22
2023-08-20T16:56:57.841Z,102144.56
2023-08-20T16:59:27.693Z,102155.34
2023-08-20T17:01:59.049Z,102146.38
2023-08-20T17:04:30.473Z,102146.38
2023-08-20T17:07:03.033Z,102146.38
2023-08-20T17:09:32.912Z,102143.69
2023-08-20T17:12:03.206Z,102153.59
2023-08-20T17:14:34.991Z,102155.38
2023-08-20T17:17:05.901Z,102158.09
2023-08-20T17:19:35.811Z,102157.19
2023-08-20T17:22:08.384Z,102155.41
2023-08-20T17:24:38.388Z,102159.91
2023-08-20T17:27:10.288Z,102161.75
2023-08-20T17:29:40.170Z,102168.03
2023-08-20T17:32:10.327Z,102166.28
2023-08-20T17:34:40.178Z,102168.06
2023-08-20T17:37:12.601Z,102174.34
2023-08-20T17:39:43.269Z,102175.25
2023-08-20T17:42:14.420Z,102171.69
2023-08-20T17:44:44.657Z,102169.91
2023-08-20T17:47:14.502Z,102177.06
2023-08-20T17:49:44.493Z,102177.09
2023-08-20T17:52:17.066Z,102180.69
2023-08-20T17:54:46.912Z,102174.44
2023-08-20T17:57:16.778Z,102169.06
2023-08-20T17:59:48.254Z,102176.25
2023-08-20T18:02:18.227Z,102175.38
2023-08-20T18:04:52.540Z,102184.34
2023-08-20T18:07:25.045Z,102182.56
2023-08-20T18:09:54.914Z,102185.25
2023-08-20T18:12:24.888Z,102179.88
2023-08-20T18:14:54.776Z,102178.03
2023-08-20T18:17:24.614Z,102175.38
2023-08-20T18:19:56.516Z,102176.28
2023-08-20T18:22:28.980Z,102170.00
2023-08-20T18:24:58.963Z,102175.41
2023-08-20T18:27:41.059Z,102179.91
2023-08-20T18:30:12.695Z,102177.22
2023-08-20T18:32:43.143Z,102193.34
2023-08-20T18:35:14.515Z,102192.44
2023-08-20T18:37:47.024Z,102193.34
2023-08-20T18:40:17.457Z,102197.84
2023-08-20T18:42:47.316Z,102199.63
2023-08-20T18:45:17.213Z,102205.00
2023-08-20T18:47:47.273Z,102210.38
2023-08-20T18:50:17.168Z,102213.06
2023-08-20T18:52:49.626Z,102210.41
2023-08-20T18:55:23.062Z,102218.44
2023-08-20T18:57:53.060Z,102220.22
2023-08-20T19:00:23.430Z,102229.19
2023-08-20T19:02:53.360Z,102228.28
2023-08-20T19:05:24.464Z,102230.97
2023-08-20T19:07:57.533Z,102230.97
2023-08-20T19:10:27.530Z,102232.72
2023-08-20T19:12:57.721Z,102239.88
2023-08-20T19:15:27.793Z,102245.25
2023-08-20T19:17:57.715Z,102253.28
2023-08-20T19:20:27.603Z,102244.31
2023-08-20T19:23:00.052Z,102244.31
2023-08-20T19:25:30.934Z,102246.06
2023-08-20T19:28:00.758Z,102246.06
2023-08-20T19:30:32.563Z,102246.06
2023-08-20T19:33:02.564Z,102242.47
2023-08-20T19:35:36.762Z,102248.69
2023-08-20T19:38:09.840Z,102243.31
2023-08-20T19:40:39.964Z,102242.41
2023-08-20T19:43:10.468Z,102245.06
2023-08-20T19:45:40.875Z,102238.81
2023-08-20T19:48:12.520Z,102238.78
2023-08-20T19:50:43.283Z,102234.31
2023-08-20T19:53:15.848Z,102237.81
2023-08-20T19:55:46.570Z,102235.09
2023-08-20T19:58:16.500Z,102230.59
2023-08-20T20:00:46.350Z,102241.31
2023-08-20T20:03:16.219Z,102234.16
2023-08-20T20:05:46.103Z,102234.13
2023-08-20T20:08:19.157Z,102235.88
2023-08-20T20:10:49.074Z,102230.47
2023-08-20T20:13:18.916Z,102234.91
2023-08-20T20:15:48.893Z,102238.44
2023-08-20T20:18:18.756Z,102237.50
2023-08-20T20:20:49.540Z,102240.16
2023-08-20T20:23:22.162Z,102243.72
2023-08-20T20:25:52.051Z,102244.56
2023-08-20T20:28:21.876Z,102246.31
2023-08-20T20:30:52.813Z,102239.97
2023-08-20T20:33:22.802Z,102238.16
2023-08-20T20:35:56.187Z,102256.00
2023-08-20T20:38:28.698Z,102253.25
2023-08-20T20:40:59.604Z,102252.31
2023-08-20T20:43:29.443Z,102256.72
2023-08-20T20:45:59.315Z,102248.66
2023-08-20T20:48:29.189Z,102259.34
2023-08-20T20:50:59.102Z,102254.78
2023-08-20T20:53:31.558Z,102259.22
2023-08-20T20:56:01.791Z,102252.97
2023-08-20T20:58:31.612Z,102262.72
2023-08-20T21:01:01.458Z,102254.63
2023-08-20T21:03:31.326Z,102250.13
2023-08-20T21:06:01.271Z,102257.19
2023-08-20T21:08:34.806Z,102265.19
2023-08-20T21:11:04.707Z,102266.91
2023-08-20T21:13:34.587Z,102265.91
2023-08-20T21:16:04.486Z,102269.44
2023-08-20T21:18:34.682Z,102263.13
2023-08-20T21:21:04.542Z,102261.31
2023-08-20T21:23:36.975Z,102255.91
2023-08-20T21:26:06.793Z,102257.66
2023-08-20T21:28:37.479Z,102257.59
2023-08-20T21:31:07.414Z,102259.31
2023-08-20T21:33:37.264Z,102257.50
2023-08-20T21:36:07.423Z,102261.88
2023-08-20T21:38:39.875Z,102255.59
2023-08-20T21:41:09.751Z,102255.53
2023-08-20T21:43:41.821Z,102257.28
2023-08-20T21:46:11.704Z,102258.13
2023-08-20T21:48:41.561Z,102253.63
2023-08-20T21:51:11.481Z,102257.16
2023-08-20T21:53:43.896Z,102258.00
2023-08-20T21:56:13.802Z,102267.75
2023-08-20T21:58:44.641Z,102268.63
2023-08-20T22:01:14.536Z,102261.44
2023-08-20T22:03:44.492Z,102268.50
2023-08-20T22:06:14.403Z,102273.81
2023-08-20T22:08:47.667Z,102274.66
2023-08-20T22:11:17.615Z,102269.25
2023-08-20T22:13:47.446Z,102277.19
2023-08-20T22:16:17.328Z,102269.13
2023-08-20T22:18:47.228Z,102271.78
2023-08-20T22:21:17.693Z,102273.50
2023-08-20T22:23:50.171Z,102269.88
2023-08-20T22:26:20.025Z,102268.94
2023-08-20T22:28:49.853Z,102274.25
2023-08-20T22:31:20.750Z,102270.63
2023-08-20T22:33:50.621Z,102271.47
2023-08-20T22:36:20.464Z,102271.44
2023-08-20T22:38:52.914Z,102273.19
2023-08-20T22:41:22.755Z,102272.25
2023-08-20T22:43:52.617Z,102261.53
2023-08-20T22:46:22.429Z,102272.16
2023-08-20T22:48:52.278Z,102263.22
2023-08-20T22:51:22.435Z,102273.91
2023-08-20T22:53:54.892Z,102268.47
2023-08-20T22:56:25.171Z,102270.25
2023-08-20T22:58:55.070Z,102277.31
2023-08-20T23:01:25.123Z,102279.94
2023-08-20T23:03:54.998Z,102272.78
2023-08-20T23:06:24.923Z,102266.47
2023-08-20T23:08:57.393Z,102278.03
2023-08-20T23:11:27.251Z,102279.78
2023-08-20T23:13:57.126Z,102278.88
2023-08-20T23:16:27.732Z,102278.78
2023-08-20T23:18:57.643Z,102279.63
2023-08-20T23:21:27.494Z,102276.00
2023-08-20T23:23:59.934Z,102277.72
2023-08-20T23:26:30.561Z,102283.00
2023-08-20T23:29:01.643Z,102278.50
2023-08-20T23:31:31.531Z,102278.47
2023-08-20T23:34:01.354Z,102271.22
2023-08-20T23:36:32.857Z,102280.03
2023-08-20T23:39:05.766Z,102278.25
2023-08-20T23:41:35.586Z,102278.19
2023-08-20T23:44:05.489Z,102269.28
2023-08-20T23:46:47.209Z,102272.84
2023-08-20T23:49:17.955Z,102268.34
2023-08-20T23:51:47.837Z,102276.31
2023-08-20T23:54:20.298Z,102265.59
2023-08-20T23:56:52.044Z,102267.38
2023-08-20T23:59:23.184Z,102273.53
